CheckWX is a tool to help pilots better visualize weather data.  It is not intended as a substitute for an official pre-flight weather briefing.

06:41:43 UTC

KTPA METAR
Tampa International Airport
Tampa, Florida, USA
Current

49 mins ago

KTPA 230553Z 03004KT 10SM CLR 18/12 A3016 RMK AO2 SLP211 T01830122 10233 20183 50005 $
Observed
Apr-23 @ 05:53 UTC
Wind
  • 030° at 4 KTS
Visibility
10 SM
Flight Rules
VFR
Cloud Levels
  • Clear skies
Temperature
18°C / 64°F
Dewpoint
12°C / 54°F
Humidity
68%
Altimeter
30.16" Hg
Pressure
1021.32 hPa
Previous

2 hours ago

KTPA 230453Z 04004KT 10SM FEW280 19/12 A3017 RMK AO2 SLP215 T01940122 402720150 $
Observed
Apr-23 @ 04:53 UTC
Wind
  • 040° at 4 KTS
Visibility
10 SM
Flight Rules
VFR
Cloud Levels
  • Few at 28,000' AGL
Temperature
19°C / 66°F
Dewpoint
12°C / 54°F
Humidity
64%
Altimeter
30.17" Hg
Pressure
1021.72 hPa
Previous

3 hours ago

KTPA 230353Z 06007KT 10SM CLR 19/13 A3016 RMK AO2 SLP211 T01940133
Observed
Apr-23 @ 03:53 UTC
Wind
  • 060° at 7 KTS
Visibility
10 SM
Flight Rules
VFR
Cloud Levels
  • Clear skies
Temperature
19°C / 66°F
Dewpoint
13°C / 55°F
Humidity
68%
Altimeter
30.16" Hg
Pressure
1021.32 hPa